createdAt,value
2018-01-27T00:02:12.648Z,4.96
2018-01-27T00:07:16.922Z,4.99
2018-01-27T00:09:45.966Z,5.02
2018-01-27T00:12:15.116Z,4.91
2018-01-27T00:14:44.201Z,4.81
2018-01-27T00:17:13.240Z,4.79
2018-01-27T00:19:42.281Z,4.95
2018-01-27T00:24:47.512Z,4.90
2018-01-27T00:27:16.619Z,4.85
2018-01-27T00:29:45.705Z,4.92
2018-01-27T00:32:14.877Z,4.85
2018-01-27T00:34:43.997Z,4.88
2018-01-27T00:37:13.122Z,5.05
2018-01-27T00:39:42.214Z,5.12
2018-01-27T00:42:11.378Z,4.96
2018-01-27T00:44:40.450Z,4.88
2018-01-27T00:47:09.536Z,4.92
2018-01-27T00:49:38.653Z,4.87
2018-01-27T00:52:07.763Z,4.82
2018-01-27T00:54:36.823Z,4.74
2018-01-27T00:57:06.812Z,4.65
2018-01-27T01:09:59.027Z,5.22
2018-01-27T01:12:28.030Z,5.06
2018-01-27T01:14:57.074Z,5.04
2018-01-27T01:17:26.114Z,5.10
2018-01-27T01:19:55.149Z,5.09
2018-01-27T01:22:24.213Z,5.11
2018-01-27T01:24:53.237Z,5.05
2018-01-27T01:27:22.293Z,5.19
2018-01-27T01:29:51.321Z,5.14
2018-01-27T01:32:20.369Z,5.20
2018-01-27T01:34:49.413Z,5.21
2018-01-27T01:37:18.466Z,5.14
2018-01-27T01:42:33.487Z,5.25
2018-01-27T01:45:02.493Z,5.18
2018-01-27T01:47:31.533Z,5.22
2018-01-27T01:52:35.757Z,5.24
2018-01-27T01:55:04.793Z,5.05
2018-01-27T01:57:33.981Z,4.97
2018-01-27T02:00:03.023Z,5.03
2018-01-27T02:02:32.076Z,5.21
2018-01-27T02:07:38.811Z,5.22
2018-01-27T02:10:07.881Z,5.33
2018-01-27T02:12:37.952Z,5.26
2018-01-27T02:15:06.998Z,5.16
2018-01-27T02:17:36.114Z,5.12
2018-01-27T02:20:05.141Z,5.24
2018-01-27T02:22:34.188Z,5.33
2018-01-27T02:25:03.273Z,5.15
2018-01-27T02:27:32.281Z,5.06
2018-01-27T02:30:01.317Z,5.04
2018-01-27T02:32:30.364Z,5.00
2018-01-27T02:34:59.409Z,5.11
2018-01-27T02:40:03.707Z,5.19
2018-01-27T02:42:32.758Z,5.16
2018-01-27T02:45:01.805Z,5.17
2018-01-27T02:47:30.850Z,5.18
2018-01-27T02:49:59.881Z,5.10
2018-01-27T02:52:28.929Z,5.16
2018-01-27T02:54:57.970Z,5.23
2018-01-27T02:57:27.066Z,5.36
2018-01-27T02:59:56.170Z,5.26
2018-01-27T03:02:25.195Z,5.25
2018-01-27T03:04:54.249Z,5.27
2018-01-27T03:07:23.288Z,5.28
2018-01-27T03:09:52.354Z,5.37
2018-01-27T03:12:22.357Z,5.33
2018-01-27T03:14:51.385Z,5.31
2018-01-27T03:17:20.423Z,5.49
2018-01-27T03:19:49.454Z,5.55
2018-01-27T03:22:19.484Z,5.57
2018-01-27T03:24:48.530Z,5.61
2018-01-27T03:27:25.504Z,5.65
2018-01-27T03:29:54.513Z,5.59
2018-01-27T03:32:23.553Z,5.55
2018-01-27T03:34:52.595Z,5.30
2018-01-27T03:37:21.645Z,5.08
2018-01-27T03:39:50.686Z,5.08
2018-01-27T03:42:19.716Z,4.97
2018-01-27T03:44:48.985Z,4.99
2018-01-27T03:47:18.021Z,5.01
2018-01-27T03:49:47.061Z,4.98
2018-01-27T03:52:16.104Z,5.02
2018-01-27T03:54:45.144Z,5.02
2018-01-27T03:57:14.186Z,5.00
2018-01-27T03:59:43.245Z,5.03
2018-01-27T04:02:12.288Z,5.01
2018-01-27T04:04:41.335Z,5.05
2018-01-27T04:12:20.962Z,5.37
2018-01-27T04:14:49.997Z,5.30
2018-01-27T04:17:19.037Z,5.29
2018-01-27T04:19:48.086Z,5.48
2018-01-27T04:22:17.125Z,5.42
2018-01-27T04:24:46.182Z,5.14
2018-01-27T04:27:15.219Z,5.10
2018-01-27T04:29:44.256Z,5.31
2018-01-27T04:34:48.565Z,5.33
2018-01-27T04:39:52.816Z,5.43
2018-01-27T04:42:21.853Z,5.39
2018-01-27T04:44:50.918Z,5.29
2018-01-27T04:47:19.928Z,5.28
2018-01-27T04:49:48.953Z,5.26
2018-01-27T04:52:24.607Z,5.26
2018-01-27T04:54:53.648Z,5.36
2018-01-27T04:57:22.693Z,5.27
2018-01-27T04:59:51.729Z,5.22
2018-01-27T05:02:20.765Z,5.21
2018-01-27T05:04:49.845Z,5.24
2018-01-27T05:07:18.889Z,5.40
2018-01-27T05:09:47.931Z,5.37
2018-01-27T05:12:17.077Z,5.45
2018-01-27T05:14:46.123Z,5.37
2018-01-27T05:17:15.159Z,5.28
2018-01-27T05:22:20.390Z,5.28
2018-01-27T05:24:49.434Z,5.27
2018-01-27T05:29:54.646Z,5.54
2018-01-27T05:32:23.671Z,5.72
2018-01-27T05:34:55.982Z,5.62
2018-01-27T05:37:25.021Z,5.76
2018-01-27T05:39:54.062Z,5.69
2018-01-27T05:42:23.108Z,5.68
2018-01-27T05:44:52.257Z,5.66
2018-01-27T05:47:21.294Z,5.70
2018-01-27T05:49:50.342Z,5.70
2018-01-27T05:52:19.422Z,5.69
2018-01-27T05:54:48.452Z,5.58
2018-01-27T05:57:17.500Z,5.60
2018-01-27T05:59:46.547Z,5.56
2018-01-27T06:04:50.774Z,5.74
2018-01-27T06:07:19.831Z,5.80
2018-01-27T06:09:48.864Z,5.62
2018-01-27T06:12:17.986Z,5.55
2018-01-27T06:14:47.037Z,5.55
2018-01-27T06:17:16.061Z,5.57
2018-01-27T06:19:45.118Z,5.53
2018-01-27T06:22:14.160Z,5.56
2018-01-27T06:24:43.229Z,5.63
2018-01-27T06:27:12.269Z,5.66
2018-01-27T06:32:17.194Z,5.94
2018-01-27T06:34:46.249Z,5.85
2018-01-27T06:37:15.294Z,5.83
2018-01-27T06:39:44.358Z,5.84
2018-01-27T06:42:13.364Z,5.85
2018-01-27T06:44:42.403Z,6.01
2018-01-27T06:47:11.437Z,5.97
2018-01-27T06:49:40.478Z,5.99
2018-01-27T06:52:09.530Z,6.02
2018-01-27T06:54:38.577Z,6.03
2018-01-27T06:57:07.626Z,6.17
2018-01-27T06:59:36.653Z,6.12
2018-01-27T07:02:05.708Z,6.05
2018-01-27T07:04:34.750Z,5.99
2018-01-27T07:07:03.797Z,6.03
2018-01-27T07:12:08.056Z,6.06
2018-01-27T07:14:37.078Z,6.07
2018-01-27T07:17:06.127Z,6.12
2018-01-27T07:19:42.883Z,6.15
2018-01-27T07:22:11.897Z,6.00
2018-01-27T07:24:40.929Z,5.99
2018-01-27T07:27:10.004Z,6.02
2018-01-27T07:29:39.033Z,6.15
2018-01-27T07:32:10.613Z,6.36
2018-01-27T07:34:39.655Z,6.53
2018-01-27T07:37:08.712Z,6.45
2018-01-27T07:39:37.761Z,6.47
2018-01-27T07:42:06.810Z,6.33
2018-01-27T07:44:35.852Z,6.28
2018-01-27T07:49:40.961Z,6.50
2018-01-27T07:54:45.225Z,6.52
2018-01-27T07:57:14.277Z,6.70
2018-01-27T07:59:43.339Z,6.57
2018-01-27T08:02:12.365Z,6.69
2018-01-27T08:04:41.413Z,6.62
2018-01-27T08:07:10.480Z,6.87
2018-01-27T08:09:39.546Z,6.65
2018-01-27T08:12:08.628Z,6.60
2018-01-27T08:14:37.682Z,6.55
2018-01-27T08:17:06.734Z,6.45
2018-01-27T08:19:35.824Z,6.42
2018-01-27T08:22:12.373Z,6.47
2018-01-27T08:24:41.385Z,6.60
2018-01-27T08:27:10.424Z,6.59
2018-01-27T08:29:39.460Z,6.63
2018-01-27T08:34:43.749Z,7.15
2018-01-27T08:37:12.761Z,7.06
2018-01-27T08:39:41.820Z,7.10
2018-01-27T08:42:10.862Z,7.09
2018-01-27T08:44:39.902Z,7.16
2018-01-27T08:47:08.942Z,7.24
2018-01-27T08:49:38.002Z,7.32
2018-01-27T08:52:07.033Z,7.35
2018-01-27T08:54:36.091Z,7.44
2018-01-27T08:57:05.141Z,7.43
2018-01-27T08:59:34.179Z,7.42
2018-01-27T09:02:03.215Z,7.42
2018-01-27T09:07:08.288Z,7.45
2018-01-27T09:09:37.336Z,7.47
2018-01-27T09:12:06.397Z,7.56
2018-01-27T09:14:35.432Z,7.60
2018-01-27T09:17:04.482Z,7.46
2018-01-27T09:19:33.525Z,7.53
2018-01-27T09:22:02.582Z,7.55
2018-01-27T09:24:32.531Z,7.72
2018-01-27T09:27:01.562Z,7.72
2018-01-27T09:29:30.645Z,7.82
2018-01-27T09:31:59.685Z,7.40
2018-01-27T09:34:28.751Z,7.57
2018-01-27T09:36:57.779Z,7.55
2018-01-27T09:42:02.005Z,7.46
2018-01-27T09:47:06.244Z,8.30
2018-01-27T09:49:35.278Z,8.54
2018-01-27T09:54:39.578Z,8.65
2018-01-27T09:57:08.626Z,8.51
2018-01-27T09:59:37.661Z,8.79
2018-01-27T10:02:06.740Z,9.35
2018-01-27T10:04:35.792Z,8.90
2018-01-27T10:07:04.841Z,9.21
2018-01-27T10:09:33.877Z,8.83
2018-01-27T10:12:03.034Z,8.80
2018-01-27T10:14:32.072Z,8.69
2018-01-27T10:19:37.301Z,9.51
2018-01-27T10:22:06.346Z,9.69
2018-01-27T10:24:35.388Z,9.32
2018-01-27T10:27:04.575Z,9.60
2018-01-27T10:29:33.609Z,9.45
2018-01-27T10:32:02.650Z,9.82
2018-01-27T10:34:31.737Z,10.37
2018-01-27T10:37:00.769Z,10.55
2018-01-27T10:39:29.817Z,10.53
2018-01-27T10:44:34.105Z,11.03
2018-01-27T10:47:04.155Z,11.21
2018-01-27T10:49:35.097Z,11.35
2018-01-27T10:52:04.148Z,11.12
2018-01-27T10:54:33.197Z,10.93
2018-01-27T10:57:02.264Z,10.63
2018-01-27T11:04:43.130Z,10.57
2018-01-27T11:09:48.936Z,10.49
2018-01-27T11:12:17.972Z,10.38
2018-01-27T11:14:48.010Z,10.58
2018-01-27T11:17:17.062Z,10.68
2018-01-27T11:19:46.997Z,10.46
2018-01-27T11:22:18.871Z,10.81
2018-01-27T11:24:47.917Z,10.92
2018-01-27T11:27:16.998Z,10.72
2018-01-27T11:32:21.261Z,10.81
2018-01-27T11:34:50.351Z,10.56
2018-01-27T11:37:19.381Z,10.44
2018-01-27T11:39:48.436Z,10.33
2018-01-27T11:44:52.762Z,10.43
2018-01-27T11:47:21.858Z,10.28
2018-01-27T11:49:50.916Z,10.09
2018-01-27T11:52:19.941Z,9.95
2018-01-27T11:54:49.005Z,10.21
2018-01-27T11:57:18.144Z,9.81
2018-01-27T11:59:47.190Z,9.77
2018-01-27T12:02:16.226Z,9.99
2018-01-27T12:04:45.278Z,10.22
2018-01-27T12:07:14.503Z,10.28
2018-01-27T12:09:43.579Z,9.74
2018-01-27T12:12:12.659Z,9.61
2018-01-27T12:14:41.697Z,9.58
2018-01-27T12:17:10.750Z,9.43
2018-01-27T12:19:40.838Z,9.61
2018-01-27T12:22:15.272Z,9.54
2018-01-27T12:24:44.622Z,9.58
2018-01-27T12:27:18.409Z,9.49
2018-01-27T12:32:29.546Z,9.82
2018-01-27T12:35:09.622Z,9.71
2018-01-27T12:37:46.355Z,9.55
2018-01-27T12:40:24.319Z,9.81
2018-01-27T12:42:59.878Z,10.06
2018-01-27T12:45:29.262Z,10.02
2018-01-27T12:47:58.298Z,10.01
2018-01-27T12:50:27.480Z,9.92
2018-01-27T12:52:57.408Z,9.70
2018-01-27T12:58:01.673Z,9.91
2018-01-27T13:00:30.732Z,9.80
2018-01-27T13:03:00.758Z,9.56
2018-01-27T13:05:29.805Z,9.62
2018-01-27T13:07:58.992Z,9.55
2018-01-27T13:10:28.889Z,9.74
2018-01-27T13:12:57.947Z,9.86
2018-01-27T13:15:27.017Z,9.83
2018-01-27T13:17:59.018Z,9.83
2018-01-27T13:20:28.329Z,9.82
2018-01-27T13:22:57.434Z,9.97
2018-01-27T13:25:26.487Z,10.00
2018-01-27T13:27:55.529Z,10.20
2018-01-27T13:30:24.654Z,10.58
2018-01-27T13:32:53.799Z,10.70
2018-01-27T13:35:22.849Z,10.82
2018-01-27T13:37:51.935Z,11.04
2018-01-27T13:40:21.902Z,10.83
2018-01-27T13:42:50.927Z,10.64
2018-01-27T13:45:20.043Z,10.55
2018-01-27T13:47:49.149Z,10.40
2018-01-27T13:50:18.246Z,9.84
2018-01-27T13:52:47.321Z,10.21
2018-01-27T13:55:16.550Z,10.26
2018-01-27T13:57:45.618Z,10.20
2018-01-27T14:02:49.967Z,10.73
2018-01-27T14:05:19.011Z,10.66
2018-01-27T14:07:48.155Z,10.80
2018-01-27T14:10:17.283Z,10.64
2018-01-27T14:12:46.398Z,10.75
2018-01-27T14:15:15.430Z,10.45
2018-01-27T14:17:44.468Z,9.87
2018-01-27T14:20:13.511Z,9.55
2018-01-27T14:22:42.577Z,9.27
2018-01-27T14:25:11.623Z,9.57
2018-01-27T14:27:40.673Z,9.77
2018-01-27T14:30:09.807Z,9.81
2018-01-27T14:32:39.103Z,9.33
2018-01-27T14:35:08.201Z,9.16
2018-01-27T14:37:37.240Z,9.33
2018-01-27T14:40:06.291Z,9.22
2018-01-27T14:42:35.398Z,9.14
2018-01-27T14:45:04.634Z,9.20
2018-01-27T14:47:34.396Z,9.29
2018-01-27T14:50:03.518Z,9.30
2018-01-27T14:52:32.560Z,9.27
2018-01-27T14:57:42.048Z,9.25
2018-01-27T15:00:13.980Z,9.16
2018-01-27T15:05:22.695Z,9.20
2018-01-27T15:07:57.092Z,9.20
2018-01-27T15:10:29.675Z,9.06
2018-01-27T15:13:03.068Z,8.77
2018-01-27T15:15:34.872Z,8.61
2018-01-27T15:25:54.086Z,8.80
2018-01-27T15:31:04.447Z,8.58
2018-01-27T15:36:14.758Z,8.36
2018-01-27T15:38:48.744Z,8.08
2018-01-27T15:41:22.751Z,8.05
2018-01-27T15:43:57.209Z,8.03
2018-01-27T15:46:29.088Z,8.07
2018-01-27T15:49:02.711Z,7.99
2018-01-27T15:51:37.100Z,7.90
2018-01-27T15:54:09.419Z,7.85
2018-01-27T15:56:38.429Z,7.77
2018-01-27T15:59:07.477Z,7.75
2018-01-27T16:01:36.513Z,7.69
2018-01-27T16:04:05.553Z,7.57
2018-01-27T16:06:34.591Z,7.61
2018-01-27T16:09:03.678Z,7.84
2018-01-27T16:11:32.701Z,7.74
2018-01-27T16:14:01.737Z,7.59
2018-01-27T16:16:31.005Z,7.43
2018-01-27T16:19:00.049Z,7.60
2018-01-27T16:21:29.214Z,7.48
2018-01-27T16:23:59.960Z,7.58
2018-01-27T16:26:29.061Z,7.53
2018-01-27T16:28:58.432Z,7.33
2018-01-27T16:31:27.484Z,7.34
2018-01-27T16:33:56.517Z,7.35
2018-01-27T16:36:25.553Z,7.32
2018-01-27T16:41:29.781Z,7.37
2018-01-27T16:43:58.817Z,7.18
2018-01-27T16:46:27.866Z,7.23
2018-01-27T16:48:56.919Z,7.22
2018-01-27T16:51:25.952Z,7.18
2018-01-27T16:53:54.985Z,7.12
2018-01-27T16:56:24.021Z,7.12
2018-01-27T17:01:29.333Z,7.27
2018-01-27T17:03:59.322Z,7.17
2018-01-27T17:06:28.374Z,7.09
2018-01-27T17:11:32.583Z,7.19
2018-01-27T17:14:01.615Z,7.07
2018-01-27T17:16:30.661Z,7.01
2018-01-27T17:18:59.709Z,7.01
2018-01-27T17:21:28.757Z,6.99
2018-01-27T17:23:57.798Z,6.95
2018-01-27T17:29:02.525Z,6.98
2018-01-27T17:31:31.579Z,6.94
2018-01-27T17:34:00.645Z,6.93
2018-01-27T17:36:29.702Z,6.92
2018-01-27T17:38:58.744Z,6.90
2018-01-27T17:41:27.817Z,6.87
2018-01-27T17:43:56.879Z,6.86
2018-01-27T17:46:25.918Z,6.86
2018-01-27T17:51:30.165Z,7.11
2018-01-27T17:53:59.222Z,7.17
2018-01-27T17:56:28.267Z,7.07
2018-01-27T18:01:32.510Z,7.11
2018-01-27T18:06:36.728Z,7.12
2018-01-27T18:09:05.949Z,7.13
2018-01-27T18:11:34.953Z,6.95
2018-01-27T18:14:04.003Z,6.93
2018-01-27T18:16:33.029Z,6.87
2018-01-27T18:19:02.097Z,6.92
2018-01-27T18:21:31.121Z,6.76
2018-01-27T18:24:02.135Z,6.73
2018-01-27T18:26:31.166Z,6.70
2018-01-27T18:29:00.206Z,6.68
2018-01-27T18:31:30.332Z,6.60
2018-01-27T18:33:59.382Z,6.62
2018-01-27T18:36:28.422Z,6.53
2018-01-27T18:38:57.476Z,6.42
2018-01-27T18:41:26.516Z,6.55
2018-01-27T18:43:55.544Z,6.45
2018-01-27T18:46:24.589Z,6.58
2018-01-27T18:48:54.653Z,6.72
2018-01-27T18:51:23.686Z,6.52
2018-01-27T18:53:52.722Z,6.69
2018-01-27T18:56:21.765Z,6.58
2018-01-27T18:58:50.815Z,6.55
2018-01-27T19:03:55.035Z,6.55
2018-01-27T19:06:25.037Z,6.34
2018-01-27T19:08:54.081Z,6.26
2018-01-27T19:11:23.152Z,6.24
2018-01-27T19:13:52.419Z,6.21
2018-01-27T19:16:21.456Z,6.20
2018-01-27T19:18:50.528Z,6.29
2018-01-27T19:21:19.590Z,6.31
2018-01-27T19:23:48.653Z,6.28
2018-01-27T19:28:52.903Z,6.33
2018-01-27T19:33:57.162Z,6.33
2018-01-27T19:36:26.340Z,6.40
2018-01-27T19:38:55.374Z,6.29
2018-01-27T19:41:24.424Z,6.27
2018-01-27T19:43:53.463Z,6.35
2018-01-27T19:46:22.497Z,6.26
2018-01-27T19:48:51.677Z,6.21
2018-01-27T19:51:20.756Z,6.16
2018-01-27T19:53:49.786Z,6.26
2018-01-27T19:56:18.846Z,6.16
2018-01-27T19:58:47.953Z,6.06
2018-01-27T20:01:17.071Z,6.06
2018-01-27T20:03:46.253Z,6.09
2018-01-27T20:06:16.077Z,6.13
2018-01-27T20:08:46.045Z,6.15
2018-01-27T20:11:15.903Z,6.12
2018-01-27T20:13:45.005Z,6.12
2018-01-27T20:16:14.049Z,6.19
2018-01-27T20:18:43.110Z,6.31
2018-01-27T20:21:12.157Z,6.27
2018-01-27T20:23:41.197Z,6.21
2018-01-27T20:26:10.253Z,6.26
2018-01-27T20:28:39.293Z,6.20
2018-01-27T20:31:08.329Z,6.15
2018-01-27T20:33:37.383Z,6.16
2018-01-27T20:38:41.626Z,6.23
2018-01-27T20:41:10.702Z,6.37
2018-01-27T20:43:39.832Z,6.28
2018-01-27T20:46:09.046Z,6.21
2018-01-27T20:48:38.106Z,6.16
2018-01-27T20:51:07.150Z,6.06
2018-01-27T20:53:36.182Z,6.19
2018-01-27T20:56:05.226Z,6.34
2018-01-27T20:58:34.274Z,6.20
2018-01-27T21:01:03.302Z,6.21
2018-01-27T21:06:08.033Z,6.31
2018-01-27T21:08:37.079Z,6.16
2018-01-27T21:11:06.112Z,6.11
2018-01-27T21:16:10.374Z,6.29
2018-01-27T21:18:39.422Z,6.24
2018-01-27T21:21:08.469Z,6.23
2018-01-27T21:23:37.660Z,6.30
2018-01-27T21:26:06.701Z,6.22
2018-01-27T21:28:35.752Z,6.19
2018-01-27T21:31:04.793Z,6.10
2018-01-27T21:36:09.017Z,6.12
2018-01-27T21:38:38.072Z,6.10
2018-01-27T21:41:07.111Z,6.10
2018-01-27T21:43:36.375Z,6.04
2018-01-27T21:46:05.388Z,6.08
2018-01-27T21:48:34.438Z,6.07
2018-01-27T21:51:03.517Z,6.10
2018-01-27T21:56:07.757Z,6.27
2018-01-27T21:58:36.818Z,6.26
2018-01-27T22:01:05.859Z,6.21
2018-01-27T22:03:34.897Z,6.19
2018-01-27T22:06:03.941Z,6.15
2018-01-27T22:08:32.978Z,6.14
2018-01-27T22:11:02.029Z,6.19
2018-01-27T22:13:31.074Z,6.15
2018-01-27T22:16:00.238Z,6.14
2018-01-27T22:21:04.469Z,6.25
2018-01-27T22:23:33.514Z,6.26
2018-01-27T22:26:02.557Z,6.23
2018-01-27T22:28:31.606Z,6.28
2018-01-27T22:31:00.734Z,6.32
2018-01-27T22:36:05.104Z,6.40
2018-01-27T22:38:34.162Z,6.41
2018-01-27T22:41:03.204Z,6.41
2018-01-27T22:43:32.252Z,6.37
2018-01-27T22:46:01.291Z,6.40
2018-01-27T22:48:30.324Z,6.45
2018-01-27T22:50:59.373Z,6.42
2018-01-27T22:53:28.422Z,6.38
2018-01-27T22:55:57.461Z,6.38
2018-01-27T22:58:26.530Z,6.42
2018-01-27T23:06:25.220Z,6.71
2018-01-27T23:08:54.284Z,6.42
2018-01-27T23:11:23.302Z,6.31
2018-01-27T23:13:54.089Z,6.29
2018-01-27T23:16:24.042Z,6.47
2018-01-27T23:18:53.101Z,6.39
2018-01-27T23:21:23.414Z,6.32
2018-01-27T23:23:52.678Z,6.41
2018-01-27T23:26:21.685Z,6.35
2018-01-27T23:28:56.707Z,6.36
2018-01-27T23:31:36.497Z,6.43
2018-01-27T23:34:10.575Z,6.45
2018-01-27T23:36:47.498Z,6.46
2018-01-27T23:39:22.809Z,6.50
2018-01-27T23:41:57.440Z,6.45
2018-01-27T23:44:33.480Z,6.46
2018-01-27T23:47:13.096Z,6.48
2018-01-27T23:49:47.788Z,6.50
2018-01-27T23:52:24.279Z,6.46
2018-01-27T23:54:58.769Z,6.54
2018-01-27T23:57:33.411Z,6.52
